createdAt,value
2023-04-05T00:01:20.232Z,6.20
2023-04-05T00:03:48.775Z,5.90
2023-04-05T00:06:17.176Z,7.40
2023-04-05T00:08:49.948Z,6.70
2023-04-05T00:11:18.865Z,7.40
2023-04-05T00:13:47.335Z,5.60
2023-04-05T00:16:19.469Z,7.40
2023-04-05T00:18:51.797Z,7.90
2023-04-05T00:21:24.337Z,6.10
2023-04-05T00:23:54.166Z,5.70
2023-04-05T00:26:22.303Z,5.40
2023-04-05T00:28:53.457Z,5.50
2023-04-05T00:31:21.645Z,5.70
2023-04-05T00:33:50.341Z,6.20
2023-04-05T00:36:19.637Z,5.50
2023-04-05T00:38:48.259Z,5.20
2023-04-05T00:41:16.783Z,5.10
2023-04-05T00:43:46.319Z,5.40
2023-04-05T00:46:22.088Z,5.40
2023-04-05T00:48:50.731Z,5.50
2023-04-05T00:51:20.209Z,6.00
2023-04-05T00:53:52.962Z,5.00
2023-04-05T00:56:21.859Z,4.60
2023-04-05T00:58:57.019Z,5.90
2023-04-05T01:01:26.593Z,6.20
2023-04-05T01:04:03.047Z,5.30
2023-04-05T01:06:58.028Z,5.50
2023-04-05T01:09:30.509Z,4.70
2023-04-05T01:12:00.953Z,5.50
2023-04-05T01:14:29.441Z,5.10
2023-04-05T01:16:58.841Z,5.00
2023-04-05T01:19:28.966Z,5.90
2023-04-05T01:22:22.046Z,4.80
2023-04-05T01:24:52.986Z,4.90
2023-04-05T01:27:22.784Z,4.90
2023-04-05T01:30:10.823Z,4.60
2023-04-05T01:32:47.568Z,4.90
2023-04-05T01:35:53.561Z,4.50
2023-04-05T01:38:25.336Z,4.80
2023-04-05T01:40:53.600Z,5.10
2023-04-05T01:43:23.729Z,5.10
2023-04-05T01:45:52.034Z,4.60
2023-04-05T01:48:21.155Z,4.50
2023-04-05T01:50:49.860Z,4.80
2023-04-05T01:53:18.129Z,4.70
2023-04-05T01:55:46.512Z,4.50
2023-04-05T01:58:15.526Z,4.40
2023-04-05T02:00:45.659Z,4.50
2023-04-05T02:03:14.313Z,4.80
2023-04-05T02:05:42.649Z,4.50
2023-04-05T02:08:14.329Z,4.30
2023-04-05T02:10:43.500Z,4.30
2023-04-05T02:13:11.736Z,4.90
2023-04-05T02:15:40.457Z,4.30
2023-04-05T02:18:09.555Z,4.50
2023-04-05T02:20:38.962Z,5.00
2023-04-05T02:23:08.597Z,4.60
2023-04-05T02:25:36.904Z,4.10
2023-04-05T02:28:09.688Z,4.50
2023-04-05T02:30:39.914Z,5.10
2023-04-05T02:33:10.564Z,4.80
2023-04-05T02:35:39.109Z,5.30
2023-04-05T02:38:07.774Z,5.60
2023-04-05T02:40:36.055Z,5.50
2023-04-05T02:43:04.139Z,5.10
2023-04-05T02:45:32.580Z,5.30
2023-04-05T02:48:01.053Z,4.80
2023-04-05T02:50:31.583Z,5.10
2023-04-05T02:53:04.495Z,5.00
2023-04-05T02:55:34.216Z,5.30
2023-04-05T02:58:03.236Z,4.70
2023-04-05T03:00:42.013Z,5.10
2023-04-05T03:03:11.628Z,5.20
2023-04-05T03:05:43.433Z,5.30
2023-04-05T03:08:20.073Z,6.20
2023-04-05T03:10:57.714Z,6.30
2023-04-05T03:13:27.537Z,6.00
2023-04-05T03:15:56.941Z,6.30
2023-04-05T03:18:26.811Z,6.60
2023-04-05T03:20:57.057Z,6.70
2023-04-05T03:23:30.440Z,6.20
2023-04-05T03:26:03.145Z,7.00
2023-04-05T03:28:35.455Z,6.10
2023-04-05T03:31:05.331Z,6.40
2023-04-05T03:33:35.525Z,6.60
2023-04-05T03:36:05.609Z,6.00
2023-04-05T03:38:36.226Z,6.70
2023-04-05T03:41:16.766Z,6.80
2023-04-05T03:43:45.039Z,6.90
2023-04-05T03:46:13.180Z,6.00
2023-04-05T03:48:41.382Z,6.00
2023-04-05T03:51:11.019Z,7.70
2023-04-05T03:53:40.873Z,7.60
2023-04-05T03:56:09.158Z,7.50
2023-04-05T03:58:43.206Z,7.30
2023-04-05T04:01:12.407Z,7.30
2023-04-05T04:03:41.013Z,7.10
2023-04-05T04:06:09.345Z,5.70
2023-04-05T04:08:39.649Z,5.60
2023-04-05T04:11:08.439Z,6.50
2023-04-05T04:13:40.425Z,6.70
2023-04-05T04:16:35.389Z,6.90
2023-04-05T04:19:24.888Z,6.80
2023-04-05T04:22:13.324Z,6.10
2023-04-05T04:25:03.920Z,6.60
2023-04-05T04:27:58.611Z,6.40
2023-04-05T04:30:56.309Z,5.50
2023-04-05T04:33:40.329Z,5.60
2023-04-05T04:36:35.134Z,6.00
2023-04-05T04:39:39.663Z,6.10
2023-04-05T04:42:39.215Z,6.80
2023-04-05T04:45:18.931Z,5.70
2023-04-05T04:48:10.133Z,5.30
2023-04-05T04:50:52.394Z,8.10
2023-04-05T04:55:59.111Z,6.70
2023-04-05T04:58:29.456Z,7.80
2023-04-05T05:01:10.438Z,7.70
2023-04-05T05:03:40.333Z,7.70
2023-04-05T05:06:08.624Z,6.80
2023-04-05T05:08:37.443Z,7.10
2023-04-05T05:11:07.388Z,8.60
2023-04-05T05:17:09.857Z,8.00
2023-04-05T05:19:38.120Z,7.40
2023-04-05T05:22:05.095Z,7.90
2023-04-05T05:24:33.753Z,9.30
2023-04-05T05:27:00.542Z,20.70
2023-04-05T05:29:32.313Z,14.40
2023-04-05T05:39:12.378Z,5.50
2023-04-05T05:41:40.587Z,6.00
2023-04-05T05:44:08.459Z,5.80
2023-04-05T05:49:09.151Z,5.60
2023-04-05T05:51:37.416Z,5.60
2023-04-05T05:54:05.707Z,6.10
2023-04-05T05:56:34.007Z,5.90
2023-04-05T05:59:02.218Z,7.10
2023-04-05T06:01:43.171Z,7.10
2023-04-05T06:04:11.500Z,6.70
2023-04-05T06:06:42.900Z,7.00
2023-04-05T06:11:49.755Z,6.80
2023-04-05T06:14:25.104Z,7.00
2023-04-05T06:16:53.241Z,7.10
2023-04-05T06:19:21.381Z,7.50
2023-04-05T06:21:49.539Z,10.40
2023-04-05T06:24:17.904Z,7.90
2023-04-05T06:26:46.315Z,7.40
2023-04-05T06:29:19.145Z,7.00
2023-04-05T06:31:48.452Z,6.50
2023-04-05T06:34:16.755Z,6.20
2023-04-05T06:36:47.639Z,6.30
2023-04-05T06:39:16.653Z,6.30
2023-04-05T06:41:45.057Z,6.20
2023-04-05T06:44:13.677Z,6.30
2023-04-05T06:46:41.981Z,6.00
2023-04-05T06:49:11.120Z,6.30
2023-04-05T06:51:39.563Z,7.20
2023-04-05T06:54:08.380Z,6.90
2023-04-05T06:56:37.895Z,6.70
2023-04-05T06:59:06.436Z,7.70
2023-04-05T07:01:37.211Z,6.70
2023-04-05T07:04:06.950Z,7.90
2023-04-05T07:06:39.060Z,7.60
2023-04-05T07:09:08.425Z,7.20
2023-04-05T07:11:36.560Z,7.90
2023-04-05T07:14:05.615Z,6.80
2023-04-05T07:16:35.833Z,6.00
2023-04-05T07:19:06.308Z,5.20
2023-04-05T07:21:34.924Z,5.50
2023-04-05T07:24:07.022Z,5.80
2023-04-05T07:26:36.119Z,5.70
2023-04-05T07:29:04.813Z,6.20
2023-04-05T07:31:33.997Z,5.90
2023-04-05T07:34:02.756Z,6.10
2023-04-05T07:36:30.950Z,5.30
2023-04-05T07:39:00.886Z,5.30
2023-04-05T07:41:35.613Z,5.50
2023-04-05T07:44:05.591Z,5.70
2023-04-05T07:46:35.672Z,5.60
2023-04-05T07:49:04.087Z,5.20
2023-04-05T07:51:36.339Z,5.80
2023-04-05T07:54:08.082Z,5.00
2023-04-05T07:56:39.746Z,6.10
2023-04-05T07:59:08.944Z,6.10
2023-04-05T08:01:37.186Z,5.70
2023-04-05T08:04:05.418Z,5.90
2023-04-05T08:06:33.899Z,5.40
2023-04-05T08:09:05.719Z,6.80
2023-04-05T08:11:35.653Z,7.60
2023-04-05T08:14:03.794Z,7.20
2023-04-05T08:16:33.702Z,6.90
2023-04-05T08:19:02.184Z,7.10
2023-04-05T08:21:30.438Z,7.70
2023-04-05T08:23:59.002Z,7.90
2023-04-05T08:26:27.141Z,7.70
2023-04-05T08:28:56.000Z,7.10
2023-04-05T08:31:23.919Z,6.90
2023-04-05T08:33:52.934Z,6.90
2023-04-05T08:36:21.900Z,7.80
2023-04-05T08:38:50.080Z,7.20
2023-04-05T08:41:23.241Z,6.60
2023-04-05T08:43:59.386Z,6.60
2023-04-05T08:46:27.662Z,6.70
2023-04-05T08:48:58.191Z,7.10
2023-04-05T08:51:26.798Z,7.40
2023-04-05T08:53:56.101Z,7.20
2023-04-05T08:56:31.221Z,7.20
2023-04-05T08:59:04.851Z,6.60
2023-04-05T09:01:36.663Z,7.30
2023-04-05T09:04:22.317Z,7.50
2023-04-05T09:06:51.382Z,7.60
2023-04-05T09:09:21.493Z,7.10
2023-04-05T09:11:50.401Z,7.60
2023-04-05T09:14:18.545Z,6.70
2023-04-05T09:16:47.250Z,6.40
2023-04-05T09:19:16.902Z,6.60
2023-04-05T09:22:05.033Z,6.50
2023-04-05T09:24:41.867Z,6.50
2023-04-05T09:27:17.786Z,6.00
2023-04-05T09:29:49.552Z,6.60
2023-04-05T09:32:20.664Z,7.00
2023-04-05T09:34:49.951Z,6.60
2023-04-05T09:37:23.420Z,6.70
2023-04-05T09:39:52.226Z,7.10
2023-04-05T09:42:25.803Z,7.60
2023-04-05T09:45:02.569Z,8.20
2023-04-05T09:47:35.254Z,7.90
2023-04-05T09:50:15.221Z,7.70
2023-04-05T09:52:43.798Z,9.00
2023-04-05T09:55:12.511Z,8.70
2023-04-05T09:57:41.411Z,7.30
2023-04-05T10:00:18.318Z,6.80
2023-04-05T10:02:47.803Z,6.50
2023-04-05T10:05:16.146Z,7.20
2023-04-05T10:07:46.350Z,7.50
2023-04-05T10:10:16.269Z,8.20
2023-04-05T10:12:45.656Z,8.40
2023-04-05T10:15:14.585Z,7.90
2023-04-05T10:18:21.753Z,7.60
2023-04-05T10:20:55.094Z,7.00
2023-04-05T10:23:27.889Z,7.10
2023-04-05T10:33:48.040Z,7.50
2023-04-05T10:39:41.902Z,7.00
2023-04-05T10:42:41.504Z,6.40
2023-04-05T10:45:17.267Z,6.60
2023-04-05T10:47:55.924Z,7.00
2023-04-05T10:50:25.819Z,7.00
2023-04-05T10:52:53.909Z,6.90
2023-04-05T10:55:22.445Z,6.90
2023-04-05T10:57:51.548Z,6.00
2023-04-05T11:00:22.764Z,6.20
2023-04-05T11:02:55.319Z,6.40
2023-04-05T11:05:29.558Z,7.10
2023-04-05T11:08:00.719Z,6.70
2023-04-05T11:10:38.035Z,6.90
2023-04-05T11:13:11.111Z,6.50
2023-04-05T11:15:39.877Z,6.10
2023-04-05T11:18:20.690Z,5.70
2023-04-05T11:21:06.321Z,5.70
2023-04-05T11:24:00.707Z,5.30
2023-04-05T11:26:34.056Z,5.90
2023-04-05T11:29:02.423Z,5.90
2023-04-05T11:31:31.998Z,5.80
2023-04-05T11:34:12.691Z,5.60
2023-04-05T11:36:48.542Z,5.40
2023-04-05T11:39:22.531Z,5.50
2023-04-05T11:42:02.178Z,5.70
2023-04-05T11:44:46.160Z,5.80
2023-04-05T11:47:17.601Z,5.20
2023-04-05T11:49:47.387Z,5.10
2023-04-05T11:52:17.515Z,4.70
2023-04-05T11:54:46.821Z,4.90
2023-04-05T11:57:19.620Z,4.90
2023-04-05T11:59:52.326Z,4.30
2023-04-05T12:02:21.342Z,4.40
2023-04-05T12:04:58.987Z,4.20
2023-04-05T12:07:36.962Z,4.30
2023-04-05T12:10:08.405Z,3.80
2023-04-05T12:15:10.946Z,3.90
2023-04-05T12:17:51.958Z,4.00
2023-04-05T12:20:27.101Z,3.90
2023-04-05T12:22:56.569Z,3.60
2023-04-05T12:25:24.573Z,3.90
2023-04-05T12:27:53.743Z,3.80
2023-04-05T12:30:23.320Z,3.00
2023-04-05T12:32:55.430Z,3.60
2023-04-05T12:38:05.765Z,3.40
2023-04-05T12:40:34.275Z,3.60
2023-04-05T12:43:07.142Z,4.50
2023-04-05T12:45:44.070Z,3.90
2023-04-05T12:48:14.020Z,3.30
2023-04-05T12:50:44.003Z,3.10
2023-04-05T12:53:20.662Z,3.10
2023-04-05T12:55:52.687Z,3.80
2023-04-05T12:58:32.744Z,3.30
2023-04-05T13:01:01.152Z,3.20
2023-04-05T13:03:30.260Z,3.80
2023-04-05T13:05:59.833Z,3.40
2023-04-05T13:08:30.646Z,3.30
2023-04-05T13:10:58.636Z,3.40
2023-04-05T13:13:26.755Z,3.70
2023-04-05T13:15:56.022Z,3.30
2023-04-05T13:18:24.647Z,4.00
2023-04-05T13:20:54.667Z,4.80
2023-04-05T13:23:23.070Z,4.00
2023-04-05T13:25:51.171Z,4.00
2023-04-05T13:28:21.111Z,3.90
2023-04-05T13:30:50.114Z,3.90
2023-04-05T13:34:34.122Z,4.30
2023-04-05T13:37:00.938Z,3.50
2023-04-05T13:39:27.963Z,3.50
2023-04-05T13:41:56.683Z,3.60
2023-04-05T13:44:25.610Z,3.70
2023-04-05T13:46:52.721Z,3.50
2023-04-05T13:49:19.305Z,3.80
2023-04-05T13:51:47.598Z,4.60
2023-04-05T13:54:15.369Z,4.60
2023-04-05T13:56:47.373Z,5.40
2023-04-05T13:59:16.256Z,5.90
2023-04-05T14:01:43.192Z,5.30
2023-04-05T14:04:10.099Z,5.50
2023-04-05T14:06:37.374Z,4.90
2023-04-05T14:09:04.286Z,5.00
2023-04-05T14:11:31.948Z,5.10
2023-04-05T14:13:59.628Z,5.20
2023-04-05T14:16:29.321Z,5.20
2023-04-05T14:18:57.312Z,5.20
2023-04-05T14:21:25.260Z,5.20
2023-04-05T14:23:56.192Z,5.40
2023-04-05T14:26:25.416Z,5.10
2023-04-05T14:28:53.075Z,7.00
2023-04-05T14:31:25.966Z,5.90
2023-04-05T14:33:53.524Z,9.70
2023-04-05T14:36:20.351Z,6.30
2023-04-05T14:38:55.836Z,5.10
2023-04-05T14:41:22.854Z,4.50
2023-04-05T14:43:49.801Z,4.80
2023-04-05T14:46:16.895Z,5.20
2023-04-05T14:48:43.816Z,4.40
2023-04-05T14:51:10.467Z,5.20
2023-04-05T14:53:37.335Z,6.80
2023-04-05T14:56:05.798Z,6.80
2023-04-05T14:58:33.361Z,6.70
2023-04-05T15:00:59.992Z,6.10
2023-04-05T15:03:27.606Z,6.20
2023-04-05T15:05:54.594Z,5.70
2023-04-05T15:08:21.727Z,4.50
2023-04-05T15:10:52.632Z,7.00
2023-04-05T15:13:21.171Z,6.70
2023-04-05T15:15:47.696Z,4.70
2023-04-05T15:18:19.820Z,4.80
2023-04-05T15:20:46.637Z,6.30
2023-04-05T15:23:13.643Z,7.00
2023-04-05T15:25:40.674Z,5.50
2023-04-05T15:28:07.478Z,6.80
2023-04-05T15:30:35.405Z,5.50
2023-04-05T15:33:02.359Z,6.00
2023-04-05T15:35:29.317Z,4.90
2023-04-05T15:37:56.115Z,4.90
2023-04-05T15:40:22.940Z,6.90
2023-04-05T15:42:49.761Z,7.70
2023-04-05T15:45:16.620Z,7.30
2023-04-05T15:47:43.673Z,5.40
2023-04-05T15:50:10.978Z,10.00
2023-04-05T15:52:37.679Z,10.40
2023-04-05T15:55:05.534Z,7.80
2023-04-05T15:57:32.338Z,6.60
2023-04-05T15:59:59.635Z,4.80
2023-04-05T16:02:26.472Z,4.20
2023-04-05T16:04:53.243Z,8.00
2023-04-05T16:07:20.594Z,6.40
2023-04-05T16:09:47.700Z,6.50
2023-04-05T16:12:14.771Z,8.10
2023-04-05T16:14:43.540Z,8.00
2023-04-05T16:17:10.931Z,4.70
2023-04-05T16:19:37.911Z,5.80
2023-04-05T16:22:05.534Z,4.20
2023-04-05T16:24:35.992Z,5.00
2023-04-05T16:27:07.594Z,5.30
2023-04-05T16:29:35.379Z,5.60
2023-04-05T16:32:02.200Z,4.70
2023-04-05T16:34:30.430Z,4.90
2023-04-05T16:36:57.723Z,4.60
2023-04-05T16:39:24.379Z,4.60
2023-04-05T16:41:51.232Z,5.50
2023-04-05T16:44:17.904Z,6.20
2023-04-05T16:46:46.676Z,7.00
2023-04-05T16:49:15.065Z,7.50
2023-04-05T16:51:42.166Z,7.90
2023-04-05T16:54:08.947Z,6.80
2023-04-05T16:56:36.482Z,9.20
2023-04-05T16:59:06.727Z,10.40
2023-04-05T17:01:34.743Z,9.90
2023-04-05T17:04:03.166Z,9.60
2023-04-05T17:06:31.198Z,9.60
2023-04-05T17:08:59.083Z,8.40
2023-04-05T17:11:27.638Z,6.80
2023-04-05T17:13:58.558Z,7.70
2023-04-05T17:16:25.262Z,7.90
2023-04-05T17:18:54.455Z,8.80
2023-04-05T17:21:28.611Z,6.30
2023-04-05T17:23:55.916Z,5.80
2023-04-05T17:26:23.316Z,5.80
2023-04-05T17:28:50.696Z,5.30
2023-04-05T17:31:18.675Z,5.80
2023-04-05T17:33:48.500Z,4.70
2023-04-05T17:36:17.017Z,4.60
2023-04-05T17:38:43.932Z,4.80
2023-04-05T17:41:11.196Z,5.30
2023-04-05T17:43:38.039Z,4.60
2023-04-05T17:46:05.111Z,5.80
2023-04-05T17:48:32.199Z,6.40
2023-04-05T17:51:08.261Z,5.60
2023-04-05T17:53:35.284Z,5.90
2023-04-05T17:56:02.647Z,5.40
2023-04-05T17:58:31.756Z,5.70
2023-04-05T18:00:58.983Z,4.90
2023-04-05T18:03:27.067Z,5.40
2023-04-05T18:05:54.535Z,6.10
2023-04-05T18:08:25.764Z,6.70
2023-04-05T18:10:57.127Z,6.70
2023-04-05T18:13:24.340Z,6.60
2023-04-05T18:15:54.980Z,8.00
2023-04-05T18:18:22.058Z,7.40
2023-04-05T18:20:52.788Z,7.30
2023-04-05T18:23:28.899Z,7.60
2023-04-05T18:25:56.718Z,6.40
2023-04-05T18:28:23.961Z,5.90
2023-04-05T18:30:51.373Z,5.80
2023-04-05T18:33:21.747Z,6.10
2023-04-05T18:35:49.796Z,11.50
2023-04-05T18:38:16.657Z,6.30
2023-04-05T18:40:43.449Z,7.00
2023-04-05T18:43:10.436Z,7.00
2023-04-05T18:45:38.403Z,6.40
2023-04-05T18:48:07.218Z,7.10
2023-04-05T18:50:34.606Z,6.50
2023-04-05T18:53:01.659Z,6.60
2023-04-05T18:55:30.638Z,6.70
2023-04-05T18:57:57.710Z,7.40
2023-04-05T19:00:25.518Z,6.70
2023-04-05T19:02:53.206Z,6.90
2023-04-05T19:05:20.379Z,6.40
2023-04-05T19:07:49.521Z,6.40
2023-04-05T19:10:16.873Z,7.00
2023-04-05T19:12:43.772Z,6.90
2023-04-05T19:15:14.113Z,7.00
2023-04-05T19:17:41.772Z,6.60
2023-04-05T19:20:08.763Z,7.20
2023-04-05T19:22:35.623Z,7.70
2023-04-05T19:25:03.257Z,7.30
2023-04-05T19:27:34.987Z,7.20
2023-04-05T19:30:07.735Z,6.90
2023-04-05T19:32:42.405Z,8.70
2023-04-05T19:35:09.655Z,7.60
2023-04-05T19:37:36.386Z,7.30
2023-04-05T19:40:05.464Z,7.10
2023-04-05T19:42:32.521Z,7.20
2023-04-05T19:45:00.152Z,7.20
2023-04-05T19:47:27.111Z,6.80
2023-04-05T19:49:58.589Z,6.50
2023-04-05T19:52:40.156Z,7.30
2023-04-05T19:55:40.395Z,6.60
2023-04-05T19:58:08.304Z,6.90
2023-04-05T20:00:51.258Z,7.10
2023-04-05T20:03:38.692Z,6.40
2023-04-05T20:06:11.850Z,6.80
2023-04-05T20:08:43.390Z,6.50
2023-04-05T20:11:14.996Z,6.50
2023-04-05T20:13:48.069Z,6.50
2023-04-05T20:16:15.771Z,6.50
2023-04-05T20:18:44.555Z,7.10
2023-04-05T20:21:13.252Z,6.90
2023-04-05T20:23:43.196Z,6.40
2023-04-05T20:26:14.698Z,6.40
2023-04-05T20:28:55.159Z,6.80
2023-04-05T20:31:23.152Z,6.90
2023-04-05T20:36:42.634Z,6.60
2023-04-05T20:39:12.086Z,6.50
2023-04-05T20:41:40.819Z,6.90
2023-04-05T20:44:10.136Z,7.40
2023-04-05T20:46:39.493Z,7.10
2023-04-05T20:49:08.060Z,7.30
2023-04-05T20:51:36.606Z,7.30
2023-04-05T20:54:05.759Z,7.10
2023-04-05T20:56:36.632Z,7.10
2023-04-05T20:59:05.142Z,6.80
2023-04-05T21:01:35.967Z,7.40
2023-04-05T21:04:05.866Z,7.50
2023-04-05T21:06:36.578Z,7.40
2023-04-05T21:09:05.186Z,7.80
2023-04-05T21:11:36.087Z,7.10
2023-04-05T21:14:05.485Z,7.70
2023-04-05T21:16:33.978Z,7.80
2023-04-05T21:19:02.052Z,7.50
2023-04-05T21:21:31.262Z,7.70
2023-04-05T21:23:59.354Z,7.60
2023-04-05T21:26:27.580Z,7.60
2023-04-05T21:28:55.820Z,7.60
2023-04-05T21:31:24.039Z,7.60
2023-04-05T21:33:52.588Z,7.90
2023-04-05T21:36:20.898Z,7.60
2023-04-05T21:38:49.281Z,7.60
2023-04-05T21:41:17.344Z,8.70
2023-04-05T21:43:48.081Z,8.50
2023-04-05T21:46:16.854Z,8.60
2023-04-05T21:48:46.214Z,8.20
2023-04-05T21:51:14.722Z,8.90
2023-04-05T21:53:43.515Z,7.90
2023-04-05T21:56:13.146Z,7.90
2023-04-05T21:58:42.861Z,8.50
2023-04-05T22:01:11.042Z,9.00
2023-04-05T22:03:41.490Z,9.50
2023-04-05T22:06:09.895Z,9.10
2023-04-05T22:08:38.150Z,9.10
2023-04-05T22:11:06.325Z,9.50
2023-04-05T22:13:36.459Z,8.90
2023-04-05T22:16:04.879Z,9.90
2023-04-05T22:18:33.526Z,9.60
2023-04-05T22:21:01.731Z,9.80
2023-04-05T22:23:29.988Z,10.20
2023-04-05T22:25:58.171Z,10.70
2023-04-05T22:28:27.066Z,10.60
2023-04-05T22:30:55.368Z,11.00
2023-04-05T22:33:24.464Z,10.70
2023-04-05T22:35:52.701Z,10.50
2023-04-05T22:38:21.559Z,10.90
2023-04-05T22:40:50.034Z,10.30
2023-04-05T22:43:18.340Z,10.10
2023-04-05T22:45:49.778Z,10.40
2023-04-05T22:48:18.399Z,10.20
2023-04-05T22:50:46.466Z,10.10
2023-04-05T22:53:14.585Z,10.80
2023-04-05T22:55:47.571Z,10.60
2023-04-05T22:58:16.764Z,11.00
2023-04-05T23:00:44.932Z,10.70
2023-04-05T23:03:19.282Z,11.20
2023-04-05T23:05:48.360Z,10.50
2023-04-05T23:08:16.497Z,10.70
2023-04-05T23:10:44.959Z,10.70
2023-04-05T23:13:13.551Z,11.20
2023-04-05T23:15:41.864Z,10.80
2023-04-05T23:18:11.109Z,10.90
2023-04-05T23:20:40.468Z,11.30
2023-04-05T23:23:08.763Z,10.60
2023-04-05T23:25:37.254Z,10.90
2023-04-05T23:28:06.026Z,11.20
2023-04-05T23:30:35.359Z,10.30
2023-04-05T23:33:04.636Z,11.10
2023-04-05T23:35:33.176Z,10.70
2023-04-05T23:38:01.814Z,10.80
2023-04-05T23:40:30.106Z,11.00
2023-04-05T23:43:01.571Z,10.80
2023-04-05T23:45:30.064Z,10.60
2023-04-05T23:47:58.698Z,10.80
2023-04-05T23:50:26.966Z,10.20
2023-04-05T23:52:55.526Z,10.80
2023-04-05T23:55:26.386Z,10.10
2023-04-05T23:57:57.769Z,10.10
